Main page
METAR-TAF:

METAR-TAF

Airports :

Base Aérea de Armilla

Granada, Spain

latitude: 37-08N, longitude: 003-38-08W, elevation: 700 m

Current weather observation

The report was made 8 hours and 48 minutes ago, at 17:00 UTC
Wind 12 kt from the South, varying between South/Southeast and Southwest
Temperature 30°C
Humidity 35%
Pressure 1016 hPa
Visibility 10 km or more
no clouds below 1500 m and no cumulonimbus

METAR: LEGA 211700Z 18012KT 160V220 CAVOK 30/13 Q1016 NOSIG

Time: 03:48 (01:48 UTC)

Forecast

The report was made 14 hours and 48 minutes ago, at 11:00 UTC
Forecast valid from 21 at 12 UTC to 21 at 21 UTC
Wind 2 kt from variable directions
Visibility 10 km or more
no clouds below 1500 m and no cumulonimbus
Becoming
from 21 at 14 UTC to 21 at 16 UTC
Wind 14 kt from the South

TAF: LEGA 211100Z 2112/2121 VRB02KT CAVOK BECMG 2114/2116 18014KT

Weather observations and forecasts of more than 4000 airports (METAR and TAF reports).

The available stations are represented by yellow and red dots on the map.

Hover mouse over dot to see the name of the station.

Then click to see weather observations and forecasts.

To change the map : click on the green buttons with a black cross to zoom in, on the green button with a dash to zoom out, or on the green arrows for adjacent maps.


METAR-TAF: